Time;durP1;ratioP1;P1;durP2;ratioP2;P2;SDS_P1;SDS_P2;PMS_P1;PMS_P2;Temp;Humidity;BMP_temperature;BMP_pressure;BME280_temperature;BME280_humidity;BME280_pressure;Samples;Min_cycle;Max_cycle;Signal;HPM_P1;HPM_P2
2022/10/04 00:01:05;;;;;;;3.28;2.25;;;17.40;50.40;;;;;;5015932;28;20194;-42
2022/10/04 00:03:41;;;;;;;4.60;1.95;;;17.40;50.40;;;;;;5015828;28;20671;-42
2022/10/04 00:06:23;;;;;;;5.50;2.92;;;17.40;50.40;;;;;;5015588;28;20245;-42
2022/10/04 00:08:57;;;;;;;4.25;2.60;;;17.30;50.40;;;;;;5015844;28;20248;-42
2022/10/04 00:11:45;;;;;;;5.32;2.00;;;17.30;50.60;;;;;;5016157;28;20610;-42
2022/10/04 00:14:25;;;;;;;11.65;1.95;;;17.30;50.50;;;;;;5015708;28;20558;-42
2022/10/04 00:16:51;;;;;;;10.07;1.90;;;17.40;50.50;;;;;;5015271;28;20182;-42
2022/10/04 00:19:44;;;;;;;5.35;2.00;;;17.40;50.50;;;;;;5015572;28;20516;-42
2022/10/04 00:22:12;;;;;;;4.78;2.30;;;17.50;50.40;;;;;;5015912;28;20209;-42
2022/10/04 00:25:16;;;;;;;6.13;2.20;;;17.40;50.30;;;;;;4997830;28;20221;-42
2022/10/04 00:28:34;;;;;;;4.85;2.20;;;17.50;50.20;;;;;;5015081;28;20659;-42
2022/10/04 00:31:13;;;;;;;10.35;2.28;;;17.50;50.20;;;;;;4961059;28;20193;-42
2022/10/04 00:33:53;;;;;;;3.47;2.22;;;17.50;50.20;;;;;;5015369;28;20198;-42
2022/10/04 00:36:22;;;;;;;5.00;2.10;;;17.50;50.20;;;;;;4998954;28;20169;-41
2022/10/04 00:39:03;;;;;;;6.30;2.10;;;17.50;50.20;;;;;;5015613;28;20186;-42
2022/10/04 00:41:47;;;;;;;5.13;1.75;;;17.50;50.20;;;;;;5015181;28;20722;-42
2022/10/04 00:44:58;;;;;;;6.60;2.55;;;17.50;50.20;;;;;;5015060;28;20222;-42
2022/10/04 00:47:32;;;;;;;2.83;1.83;;;17.50;50.20;;;;;;5010807;28;20262;-42
2022/10/04 00:50:07;;;;;;;3.70;2.60;;;17.40;50.20;;;;;;5015182;28;20522;-42
2022/10/04 00:52:39;;;;;;;6.18;2.05;;;17.40;50.20;;;;;;5015316;28;20190;-42
2022/10/04 00:55:08;;;;;;;6.82;2.17;;;17.40;50.20;;;;;;5014874;28;20305;-41
2022/10/04 00:57:47;;;;;;;4.07;1.90;;;17.50;50.30;;;;;;5013765;28;20177;-42
2022/10/04 01:00:18;;;;;;;6.68;2.40;;;17.40;50.10;;;;;;5015368;28;20508;-42
2022/10/04 01:02:57;;;;;;;5.47;2.47;;;17.40;50.20;;;;;;5014789;28;20180;-42
2022/10/04 01:05:29;;;;;;;5.97;1.98;;;17.50;50.20;;;;;;5015019;28;20214;-42
2022/10/04 01:08:10;;;;;;;8.52;3.03;;;17.40;50.10;;;;;;5014426;28;20154;-42
2022/10/04 01:10:49;;;;;;;3.17;1.73;;;17.40;50.10;;;;;;5014598;28;20229;-42
2022/10/04 01:13:19;;;;;;;5.05;2.10;;;17.50;50.20;;;;;;5014583;28;20607;-42
2022/10/04 01:15:55;;;;;;;3.80;1.80;;;17.50;50.20;;;;;;5014336;28;20796;-42
2022/10/04 01:18:28;;;;;;;5.32;1.80;;;17.50;50.20;;;;;;5014785;28;20180;-42
2022/10/04 01:21:21;;;;;;;2.85;2.17;;;17.50;50.20;;;;;;5014568;28;20186;-42
2022/10/04 01:23:48;;;;;;;5.53;1.92;;;17.50;50.10;;;;;;5014216;28;20558;-42
2022/10/04 01:26:29;;;;;;;2.70;1.55;;;17.50;50.10;;;;;;5014239;28;20174;-42
2022/10/04 01:29:07;;;;;;;6.05;2.17;;;17.50;50.00;;;;;;5014518;28;20166;-42
2022/10/04 01:31:35;;;;;;;3.67;1.83;;;17.50;50.00;;;;;;5014275;28;20673;-42
2022/10/04 01:34:03;;;;;;;4.55;1.83;;;17.40;49.90;;;;;;5014103;28;20205;-41
2022/10/04 01:36:30;;;;;;;5.40;2.10;;;17.40;50.00;;;;;;5013731;28;20270;-42
2022/10/04 01:38:56;;;;;;;4.68;2.13;;;17.40;50.00;;;;;;5014165;28;20171;-41
2022/10/04 01:41:29;;;;;;;6.30;1.70;;;17.40;50.00;;;;;;5014188;28;20181;-42
2022/10/04 01:43:59;;;;;;;10.38;2.13;;;17.50;49.80;;;;;;5014217;28;20234;-42
2022/10/04 01:46:31;;;;;;;6.30;1.95;;;17.40;49.80;;;;;;5013835;28;20672;-42
2022/10/04 01:49:01;;;;;;;4.00;1.65;;;17.40;49.80;;;;;;5014294;28;20182;-42
2022/10/04 01:51:32;;;;;;;6.22;2.00;;;17.40;49.90;;;;;;5013981;28;20635;-42
2022/10/04 01:54:04;;;;;;;5.47;2.08;;;17.30;49.80;;;;;;5013827;28;20870;-42
2022/10/04 01:56:37;;;;;;;3.35;1.95;;;17.30;49.90;;;;;;5013465;28;20627;-42
2022/10/04 01:59:06;;;;;;;5.95;2.92;;;17.30;50.00;;;;;;5014068;28;20245;-42
2022/10/04 02:01:59;;;;;;;4.90;1.98;;;17.30;50.00;;;;;;5013764;28;20175;-42
2022/10/04 02:04:38;;;;;;;4.30;2.30;;;17.30;49.90;;;;;;5013756;28;20229;-42
2022/10/04 02:07:11;;;;;;;5.78;1.75;;;17.40;49.90;;;;;;5013282;28;20190;-42
2022/10/04 02:09:42;;;;;;;5.47;2.03;;;17.30;49.90;;;;;;5013595;28;20158;-41
2022/10/04 02:12:09;;;;;;;6.10;1.73;;;17.40;49.90;;;;;;5013846;28;20154;-42
2022/10/04 02:14:38;;;;;;;3.40;1.85;;;17.30;49.80;;;;;;5013409;28;20195;-42
2022/10/04 02:17:09;;;;;;;9.88;1.95;;;17.30;49.80;;;;;;5012984;28;20738;-42
2022/10/04 02:19:38;;;;;;;5.90;1.92;;;17.30;49.80;;;;;;5013402;28;20163;-42
2022/10/04 02:22:06;;;;;;;4.43;2.20;;;17.30;49.80;;;;;;5013602;28;20274;-42
2022/10/04 02:24:34;;;;;;;3.40;1.83;;;17.30;49.80;;;;;;5013185;28;20195;-42
2022/10/04 02:27:00;;;;;;;4.50;1.80;;;17.30;49.80;;;;;;5012812;28;20190;-42
2022/10/04 02:29:26;;;;;;;6.10;2.00;;;17.30;49.80;;;;;;5013289;28;20175;-42
2022/10/04 02:34:37;;;;;;;6.78;2.58;;;17.20;49.70;;;;;;5013292;28;20479;-42
2022/10/04 02:37:04;;;;;;;5.10;1.73;;;17.20;49.70;;;;;;5012735;28;20185;-42
2022/10/04 02:39:40;;;;;;;18.83;2.42;;;17.20;49.70;;;;;;5013324;28;20178;-42
2022/10/04 02:42:16;;;;;;;5.25;2.08;;;17.20;49.90;;;;;;5013125;28;20602;-42
2022/10/04 02:44:57;;;;;;;7.05;2.40;;;17.10;49.90;;;;;;5012880;28;20597;-42
2022/10/04 02:47:28;;;;;;;6.72;1.60;;;17.00;49.80;;;;;;5012683;28;20172;-42
2022/10/04 02:50:05;;;;;;;2.10;1.45;;;17.00;49.90;;;;;;5012893;28;20156;-41
2022/10/04 02:52:38;;;;;;;5.90;2.10;;;17.00;50.00;;;;;;5012958;28;20178;-42
2022/10/04 02:55:06;;;;;;;8.60;2.03;;;17.00;49.90;;;;;;5012671;28;20210;-42
2022/10/04 02:57:33;;;;;;;2.63;1.58;;;17.00;50.00;;;;;;5012630;28;20269;-42
2022/10/04 03:00:11;;;;;;;3.00;2.20;;;17.10;50.00;;;;;;5012748;28;20180;-42
2022/10/04 03:02:38;;;;;;;6.47;1.50;;;17.10;50.00;;;;;;5012662;28;20638;-42
2022/10/04 03:05:14;;;;;;;13.85;2.53;;;17.10;50.00;;;;;;5012546;28;20296;-42
2022/10/04 03:07:40;;;;;;;12.00;2.10;;;17.10;50.00;;;;;;5012234;28;20178;-42
2022/10/04 03:10:10;;;;;;;5.55;3.20;;;17.00;49.80;;;;;;5012651;28;20561;-42
2022/10/04 03:12:38;;;;;;;5.38;2.40;;;17.00;49.90;;;;;;5012507;28;20210;-41
2022/10/04 03:15:11;;;;;;;3.97;2.03;;;17.00;49.90;;;;;;5012455;28;20191;-41
2022/10/04 03:17:41;;;;;;;3.67;1.80;;;17.00;50.00;;;;;;5012060;28;20182;-42
2022/10/04 03:20:11;;;;;;;3.58;1.33;;;17.00;49.90;;;;;;5012106;28;20175;-42
2022/10/04 03:22:38;;;;;;;7.80;1.65;;;17.00;50.00;;;;;;5012303;28;20662;-43
2022/10/04 03:25:05;;;;;;;7.82;2.38;;;17.00;49.90;;;;;;5012189;28;20683;-42
2022/10/04 03:27:33;;;;;;;5.13;1.90;;;17.00;49.90;;;;;;5012059;28;20210;-42
2022/10/04 03:30:00;;;;;;;3.17;2.20;;;17.00;49.80;;;;;;5012403;28;20167;-43
2022/10/04 03:32:29;;;;;;;9.75;2.08;;;17.00;49.80;;;;;;5012334;28;20178;-43
2022/10/04 03:35:02;;;;;;;5.38;2.67;;;17.00;49.80;;;;;;5012184;28;20197;-42
2022/10/04 03:37:31;;;;;;;10.90;2.30;;;17.00;49.80;;;;;;5011696;28;20191;-43
2022/10/04 03:39:57;;;;;;;3.53;2.47;;;17.00;49.80;;;;;;5012310;28;20182;-42
2022/10/04 03:42:26;;;;;;;4.63;2.25;;;17.00;49.80;;;;;;5012541;28;20253;-43
2022/10/04 03:45:06;;;;;;;5.97;2.10;;;17.00;49.80;;;;;;5011981;28;20199;-43
2022/10/04 03:47:36;;;;;;;6.95;1.95;;;17.00;49.80;;;;;;5011596;28;20178;-42
2022/10/04 03:50:12;;;;;;;7.82;2.65;;;17.10;49.90;;;;;;5012177;28;20233;-42
2022/10/04 03:52:39;;;;;;;5.38;2.30;;;17.00;49.80;;;;;;4994551;28;20190;-43
2022/10/04 03:55:07;;;;;;;4.22;1.83;;;17.00;50.00;;;;;;5011949;28;20253;-42
2022/10/04 03:57:35;;;;;;;4.80;2.72;;;17.00;49.90;;;;;;5011825;28;20271;-42
2022/10/04 04:00:05;;;;;;;4.15;1.98;;;17.00;49.90;;;;;;5011968;28;20254;-42
2022/10/04 04:02:42;;;;;;;6.07;2.30;;;17.00;49.90;;;;;;5012229;28;20189;-43
2022/10/04 04:05:18;;;;;;;3.90;1.65;;;17.10;50.10;;;;;;5011993;28;20259;-42
2022/10/04 04:08:03;;;;;;;10.73;2.08;;;17.10;50.10;;;;;;5011663;28;20169;-41
2022/10/04 04:10:33;;;;;;;4.85;2.53;;;17.10;50.00;;;;;;5012185;28;20163;-42
2022/10/04 04:13:06;;;;;;;5.95;2.10;;;17.10;50.10;;;;;;5012149;28;20171;-41
2022/10/04 04:15:33;;;;;;;6.13;2.40;;;17.10;50.00;;;;;;5011516;28;20224;-42
2022/10/04 04:18:12;;;;;;;6.43;2.50;;;17.10;50.20;;;;;;5011903;28;20182;-43
2022/10/04 04:20:39;;;;;;;3.47;2.25;;;17.10;50.10;;;;;;5011781;28;20642;-42
2022/10/04 04:23:14;;;;;;;14.93;4.05;;;17.10;50.20;;;;;;5011733;28;20674;-43
2022/10/04 04:25:53;;;;;;;8.82;2.85;;;17.10;50.20;;;;;;5011144;28;20209;-41
2022/10/04 04:28:38;;;;;;;5.63;2.40;;;17.10;50.00;;;;;;5012023;28;20225;-42
2022/10/04 04:31:07;;;;;;;8.48;2.38;;;17.10;50.10;;;;;;5011662;28;20174;-42
2022/10/04 04:33:50;;;;;;;9.85;2.75;;;17.00;50.10;;;;;;5014494;28;20237;-41
2022/10/04 04:36:16;;;;;;;5.35;2.95;;;17.00;50.10;;;;;;5015177;28;20185;-43
2022/10/04 04:41:30;;;;;;;5.70;2.35;;;17.00;50.10;;;;;;5015474;28;20409;-42
2022/10/04 04:43:57;;;;;;;7.93;2.45;;;17.00;50.10;;;;;;5015073;28;20199;-41
2022/10/04 04:46:23;;;;;;;11.23;3.33;;;17.00;50.10;;;;;;5014512;28;20205;-42
2022/10/04 04:49:03;;;;;;;7.32;2.50;;;17.00;50.10;;;;;;5015246;28;20175;-42
2022/10/04 04:51:31;;;;;;;4.35;2.72;;;17.00;50.10;;;;;;5015151;28;20167;-43
2022/10/04 04:53:58;;;;;;;12.05;2.30;;;17.00;50.10;;;;;;5015194;28;20294;-42
2022/10/04 04:56:27;;;;;;;5.20;2.65;;;17.00;50.10;;;;;;5014405;28;20516;-42
2022/10/04 04:58:56;;;;;;;9.18;1.95;;;17.10;50.20;;;;;;5014866;28;20696;-42
2022/10/04 05:01:28;;;;;;;4.78;2.10;;;17.10;50.10;;;;;;5014849;28;20179;-42
2022/10/04 05:04:12;;;;;;;6.13;2.53;;;17.10;50.10;;;;;;5014719;28;20191;-42
2022/10/04 05:06:40;;;;;;;7.28;2.90;;;17.10;49.90;;;;;;5014062;28;20167;-42
2022/10/04 05:09:20;;;;;;;4.05;1.92;;;17.10;50.00;;;;;;5014883;28;20170;-42
2022/10/04 05:11:48;;;;;;;6.72;2.33;;;17.10;50.00;;;;;;5014781;28;20174;-42
2022/10/04 05:14:16;;;;;;;13.38;3.03;;;17.00;50.00;;;;;;5014602;28;20194;-42
2022/10/04 05:16:51;;;;;;;9.45;3.47;;;17.10;50.20;;;;;;5014305;28;20179;-43
2022/10/04 05:19:33;;;;;;;11.40;3.45;;;17.10;50.20;;;;;;5014856;28;20170;-43
2022/10/04 05:22:02;;;;;;;6.20;2.47;;;17.10;50.10;;;;;;5014367;28;20170;-43
2022/10/04 05:24:30;;;;;;;9.15;2.67;;;17.10;50.10;;;;;;5014185;28;20790;-44
2022/10/04 05:27:12;;;;;;;7.30;3.00;;;17.10;50.10;;;;;;5013929;28;20225;-44
2022/10/04 05:29:45;;;;;;;7.45;2.40;;;17.10;50.00;;;;;;5014180;28;20182;-43
2022/10/04 05:32:49;;;;;;;6.45;2.50;;;17.00;50.00;;;;;;5014436;28;20232;-44
2022/10/04 05:35:17;;;;;;;6.60;2.25;;;17.00;49.90;;;;;;5014241;28;20179;-43
2022/10/04 05:38:02;;;;;;;5.35;2.72;;;17.00;50.00;;;;;;5013554;28;20193;-44
2022/10/04 05:40:35;;;;;;;3.45;2.30;;;17.00;49.90;;;;;;5014111;28;20531;-43
2022/10/04 05:43:02;;;;;;;6.70;2.33;;;17.00;50.00;;;;;;5013763;28;20183;-43
2022/10/04 05:45:30;;;;;;;4.60;2.78;;;17.00;49.90;;;;;;5014047;28;20663;-42
2022/10/04 05:47:59;;;;;;;10.68;2.65;;;17.00;50.00;;;;;;5013760;28;20200;-44
2022/10/04 05:50:29;;;;;;;5.55;2.80;;;17.00;50.00;;;;;;5014009;28;20265;-43
2022/10/04 05:53:18;;;;;;;4.47;2.13;;;17.00;49.90;;;;;;5013588;28;20170;-44
2022/10/04 05:56:11;;;;;;;15.85;2.58;;;17.00;49.90;;;;;;5013499;28;20188;-43
2022/10/04 05:59:08;;;;;;;6.18;2.85;;;17.00;49.80;;;;;;5014176;28;20162;-43
2022/10/04 06:02:02;;;;;;;10.05;2.90;;;17.00;49.70;;;;;;5013895;28;20178;-43
2022/10/04 06:05:05;;;;;;;5.05;3.08;;;17.00;49.60;;;;;;5013475;28;20238;-43
2022/10/04 06:07:38;;;;;;;7.47;2.85;;;17.10;49.80;;;;;;5012971;28;20275;-43
2022/10/04 06:10:25;;;;;;;8.55;2.90;;;17.00;49.70;;;;;;5013796;28;20190;-43
2022/10/04 06:13:03;;;;;;;5.70;2.90;;;17.00;49.60;;;;;;5013467;28;20170;-43
2022/10/04 06:15:49;;;;;;;5.95;2.83;;;17.00;49.50;;;;;;5013289;28;20630;-43
2022/10/04 06:18:39;;;;;;;10.85;3.03;;;17.00;49.50;;;;;;5013553;28;20221;-44
2022/10/04 06:21:26;;;;;;;5.07;2.10;;;17.00;49.50;;;;;;5013327;28;20167;-43
2022/10/04 06:23:55;;;;;;;9.23;2.92;;;17.00;49.60;;;;;;5013179;28;20661;-43
2022/10/04 06:26:26;;;;;;;5.50;2.60;;;17.00;49.50;;;;;;5012669;28;20178;-44
2022/10/04 06:29:00;;;;;;;5.57;2.70;;;17.00;50.30;;;;;;5013303;28;20181;-44
2022/10/04 06:31:43;;;;;;;12.73;4.60;;;17.10;49.70;;;;;;5013295;28;20662;-43
2022/10/04 06:34:21;;;;;;;7.43;3.03;;;17.10;49.60;;;;;;5012903;28;20206;-43
2022/10/04 06:37:01;;;;;;;8.13;3.33;;;17.20;49.40;;;;;;5012576;28;20535;-43
2022/10/04 06:39:35;;;;;;;5.93;2.80;;;17.20;49.40;;;;;;5013087;28;20751;-43
2022/10/04 06:42:23;;;;;;;5.05;2.60;;;17.20;49.20;;;;;;5013231;28;20181;-44
2022/10/04 06:45:28;;;;;;;7.78;2.67;;;17.20;49.30;;;;;;5012833;28;20195;-43
2022/10/04 06:48:03;;;;;;;8.60;3.40;;;17.20;49.20;;;;;;5012529;28;20189;-43
2022/10/04 06:50:50;;;;;;;5.75;3.25;;;17.20;49.20;;;;;;5013071;28;20242;-43
2022/10/04 06:53:42;;;;;;;8.07;2.53;;;17.20;49.10;;;;;;5012962;28;20288;-43
2022/10/04 06:56:29;;;;;;;4.95;2.58;;;17.30;48.90;;;;;;4974630;28;20662;-43
2022/10/04 06:59:36;;;;;;;10.93;2.72;;;17.20;48.80;;;;;;5012722;28;20178;-43
2022/10/04 07:02:24;;;;;;;9.63;2.55;;;17.20;48.60;;;;;;4969019;28;20248;-42
2022/10/04 07:05:00;;;;;;;4.57;2.03;;;17.30;48.90;;;;;;5012774;28;20304;-42
2022/10/04 07:07:36;;;;;;;7.40;3.63;;;17.30;49.00;;;;;;5012031;28;20162;-43
2022/10/04 07:10:16;;;;;;;6.47;1.90;;;17.30;48.90;;;;;;5012558;28;20166;-43
2022/10/04 07:12:49;;;;;;;4.75;2.42;;;17.40;48.90;;;;;;5012622;28;20197;-43
2022/10/04 07:15:35;;;;;;;5.30;2.58;;;17.40;48.80;;;;;;5012749;28;20177;-43
2022/10/04 07:18:07;;;;;;;8.73;2.35;;;17.40;48.60;;;;;;5012325;28;20178;-42
2022/10/04 07:20:35;;;;;;;5.35;2.40;;;17.40;48.50;;;;;;5012720;28;20167;-42
2022/10/04 07:23:26;;;;;;;4.78;2.17;;;17.40;48.60;;;;;;5012530;28;20547;-43
2022/10/04 07:25:58;;;;;;;5.78;2.28;;;17.50;48.80;;;;;;5011638;28;20241;-43
2022/10/04 07:31:19;;;;;;;7.60;2.35;;;17.60;48.80;;;;;;5012705;28;20201;-43
2022/10/04 07:34:14;;;;;;;9.57;2.08;;;17.70;48.90;;;;;;5012108;28;20194;-43
2022/10/04 07:36:54;;;;;;;4.95;2.25;;;17.80;48.80;;;;;;5011600;28;20187;-43
2022/10/04 07:39:27;;;;;;;4.57;2.42;;;17.80;48.50;;;;;;5012310;28;20622;-43
2022/10/04 07:41:57;;;;;;;3.03;2.40;;;17.90;48.60;;;;;;5012213;28;20174;-43
2022/10/04 07:44:29;;;;;;;4.05;2.00;;;18.00;48.40;;;;;;5012057;28;20273;-43
2022/10/04 07:47:10;;;;;;;8.88;2.75;;;18.00;48.30;;;;;;5011418;28;20167;-43
2022/10/04 07:49:38;;;;;;;7.38;1.77;;;18.10;48.00;;;;;;5012139;28;20177;-43
2022/10/04 07:52:23;;;;;;;6.82;2.47;;;18.10;48.20;;;;;;5012340;28;20232;-43
2022/10/04 07:55:01;;;;;;;4.60;2.70;;;18.20;48.20;;;;;;5011951;28;20210;-43
2022/10/04 07:57:39;;;;;;;5.20;1.80;;;18.20;48.10;;;;;;5011395;28;20170;-43
2022/10/04 08:00:19;;;;;;;2.67;2.20;;;18.20;48.00;;;;;;5012319;28;20546;-43
2022/10/04 08:03:13;;;;;;;8.25;2.42;;;18.30;48.10;;;;;;5011982;28;20155;-43
2022/10/04 08:05:45;;;;;;;7.00;3.47;;;18.40;48.10;;;;;;5011298;28;20209;-43
2022/10/04 08:08:27;;;;;;;4.70;2.42;;;18.40;47.80;;;;;;5016096;28;20166;-43
2022/10/04 08:11:06;;;;;;;11.43;2.70;;;18.50;47.60;;;;;;5015930;28;20185;-43
2022/10/04 08:13:41;;;;;;;8.95;2.20;;;18.50;47.60;;;;;;5015631;28;20538;-43
2022/10/04 08:16:33;;;;;;;8.65;3.28;;;18.50;47.70;;;;;;5015013;28;20178;-43
2022/10/04 08:19:27;;;;;;;5.13;2.60;;;18.60;47.80;;;;;;5007213;28;20342;-43
2022/10/04 08:22:02;;;;;;;7.68;3.30;;;18.60;47.70;;;;;;5015518;28;20186;-43
2022/10/04 08:25:02;;;;;;;5.38;2.58;;;18.60;47.30;;;;;;5015271;28;20208;-43
2022/10/04 08:27:31;;;;;;;3.78;2.60;;;18.70;46.80;;;;;;5015237;28;20163;-43
2022/10/04 08:30:14;;;;;;;4.35;2.00;;;18.70;47.50;;;;;;5015434;28;20171;-43
2022/10/04 08:32:55;;;;;;;6.35;2.10;;;18.70;47.00;;;;;;5015354;28;20553;-43
2022/10/04 08:36:00;;;;;;;11.88;3.28;;;18.70;47.40;;;;;;5015543;28;20572;-43
2022/10/04 08:38:41;;;;;;;3.92;2.30;;;18.80;47.50;;;;;;4984871;28;20189;-43
2022/10/04 08:41:10;;;;;;;4.38;2.97;;;18.80;46.90;;;;;;5015207;28;20241;-43
2022/10/04 08:44:09;;;;;;;4.85;2.60;;;18.80;47.00;;;;;;5015361;28;20563;-43
2022/10/04 08:46:58;;;;;;;12.10;3.55;;;18.80;47.50;;;;;;5014492;28;20662;-43
2022/10/04 08:49:59;;;;;;;5.82;2.72;;;18.90;47.40;;;;;;5015337;28;20193;-43
2022/10/04 08:52:38;;;;;;;5.90;2.75;;;18.90;47.00;;;;;;5015233;28;20241;-43
2022/10/04 08:55:21;;;;;;;4.72;2.30;;;18.90;47.10;;;;;;5015498;28;20202;-42
2022/10/04 08:58:14;;;;;;;8.45;3.42;;;18.90;46.60;;;;;;5014362;28;20250;-42
2022/10/04 09:00:55;;;;;;;7.00;3.20;;;18.90;46.90;;;;;;5014903;28;20182;-43
2022/10/04 09:03:30;;;;;;;6.95;2.50;;;18.90;46.70;;;;;;5014804;28;20241;-43
2022/10/04 09:06:07;;;;;;;4.70;2.22;;;18.90;46.60;;;;;;5014133;28;20213;-42
2022/10/04 09:09:10;;;;;;;5.68;2.60;;;19.00;46.30;;;;;;5014960;28;20257;-43
2022/10/04 09:11:57;;;;;;;8.38;3.20;;;19.00;46.40;;;;;;5015072;28;20178;-43
2022/10/04 09:14:41;;;;;;;5.85;3.00;;;19.10;46.70;;;;;;5014576;28;20690;-43
2022/10/04 09:17:19;;;;;;;6.85;3.40;;;19.10;46.70;;;;;;5014155;28;20183;-43
2022/10/04 09:20:00;;;;;;;3.80;2.70;;;19.20;46.90;;;;;;5014232;28;20197;-43
2022/10/04 09:22:48;;;;;;;7.65;3.97;;;19.20;46.00;;;;;;5014520;28;20163;-43
2022/10/04 09:25:56;;;;;;;7.28;3.55;;;19.20;45.50;;;;;;5014452;28;20203;-43
2022/10/04 09:28:55;;;;;;;9.25;3.20;;;19.20;45.80;;;;;;4970865;28;20178;-43
2022/10/04 09:31:42;;;;;;;6.28;4.63;;;19.30;46.10;;;;;;5014214;28;20167;-43
2022/10/04 09:34:09;;;;;;;5.32;3.35;;;19.30;45.40;;;;;;5014171;28;20202;-43
2022/10/04 09:36:39;;;;;;;6.47;3.17;;;19.40;45.30;;;;;;5013581;28;20181;-43
2022/10/04 09:39:32;;;;;;;9.05;3.35;;;19.40;45.50;;;;;;5014086;28;20183;-42
2022/10/04 09:42:34;;;;;;;8.15;4.00;;;19.40;45.30;;;;;;5021139;23;20253;-43
2022/10/04 09:45:20;;;;;;;5.07;3.90;;;19.50;45.70;;;;;;4989538;28;20218;-43
2022/10/04 09:47:50;;;;;;;6.70;3.55;;;19.50;45.60;;;;;;4994137;28;20504;-43
2022/10/04 09:50:40;;;;;;;4.93;2.97;;;19.60;45.60;;;;;;4994583;28;20514;-43
2022/10/04 09:53:24;;;;;;;7.00;3.03;;;19.70;45.40;;;;;;5005346;28;20695;-43
2022/10/04 09:56:26;;;;;;;8.50;3.33;;;19.80;44.60;;;;;;5013538;28;20179;-42
2022/10/04 09:59:09;;;;;;;3.60;2.63;;;19.90;44.60;;;;;;5013885;28;20498;-43
2022/10/04 10:02:27;;;;;;;8.82;3.65;;;20.00;44.80;;;;;;5013868;28;20253;-42
2022/10/04 10:05:21;;;;;;;11.93;3.92;;;20.10;44.60;;;;;;5013843;28;20611;-43
2022/10/04 10:08:05;;;;;;;3.15;2.40;;;20.20;44.20;;;;;;5013355;28;20194;-43
2022/10/04 10:13:44;;;;;;;6.50;3.75;;;20.10;44.10;;;;;;5013503;28;20225;-42
2022/10/04 10:16:28;;;;;;;8.00;3.47;;;20.30;44.10;;;;;;5013146;28;20232;-42
2022/10/04 10:19:31;;;;;;;8.18;2.42;;;20.30;42.80;;;;;;5013502;28;20170;-43
2022/10/04 10:22:21;;;;;;;8.35;2.67;;;20.50;44.40;;;;;;5013624;28;20176;-43
2022/10/04 10:25:08;;;;;;;4.70;3.00;;;20.60;44.60;;;;;;5013279;28;20707;-43
2022/10/04 10:27:57;;;;;;;6.35;2.80;;;20.80;44.40;;;;;;5012929;28;20480;-43
2022/10/04 10:30:36;;;;;;;9.30;3.30;;;20.80;42.60;;;;;;5012863;28;20166;-43
2022/10/04 10:33:37;;;;;;;3.03;2.00;;;20.80;43.00;;;;;;5013027;28;20236;-43
2022/10/04 10:36:40;;;;;;;5.88;2.22;;;20.80;42.80;;;;;;5012606;28;20393;-43
2022/10/04 10:39:29;;;;;;;6.88;2.40;;;20.80;41.90;;;;;;5013312;28;20213;-43
2022/10/04 10:42:16;;;;;;;4.75;2.15;;;20.80;43.20;;;;;;5013075;28;20190;-43
2022/10/04 10:45:13;;;;;;;2.50;1.63;;;20.70;42.60;;;;;;5012905;28;20202;-43
2022/10/04 10:47:55;;;;;;;4.50;1.45;;;20.70;41.20;;;;;;5012936;28;20178;-43
2022/10/04 10:50:57;;;;;;;6.82;2.45;;;20.60;41.90;;;;;;5012891;28;20177;-42
2022/10/04 10:53:53;;;;;;;3.40;1.77;;;20.70;42.60;;;;;;5013029;28;20208;-42
2022/10/04 10:56:43;;;;;;;3.80;1.90;;;20.80;43.10;;;;;;5012374;28;20393;-43
2022/10/04 10:59:39;;;;;;;3.53;2.10;;;20.80;42.50;;;;;;5012690;28;20431;-43
2022/10/04 11:02:31;;;;;;;4.60;2.10;;;20.80;41.90;;;;;;5012706;28;21110;-42
2022/10/04 11:05:17;;;;;;;4.60;1.40;;;20.80;41.40;;;;;;5012859;28;20545;-42
2022/10/04 11:08:01;;;;;;;5.35;2.17;;;20.80;41.70;;;;;;5011808;28;20943;-43
2022/10/04 11:11:02;;;;;;;2.57;1.70;;;20.80;42.30;;;;;;5012668;28;20201;-43
2022/10/04 11:13:47;;;;;;;3.10;1.90;;;20.80;41.60;;;;;;5012400;28;20954;-43
2022/10/04 11:16:33;;;;;;;5.10;1.60;;;20.90;42.40;;;;;;5011919;28;20932;-43
2022/10/04 11:19:05;;;;;;;3.30;1.90;;;21.00;43.70;;;;;;5012397;28;20874;-42
2022/10/04 11:22:06;;;;;;;5.53;2.03;;;21.10;42.70;;;;;;5012491;28;20279;-43
2022/10/04 11:25:24;;;;;;;6.27;1.77;;;21.10;41.90;;;;;;5000387;28;20825;-43
2022/10/04 11:28:45;;;;;;;4.90;1.87;;;21.20;40.00;;;;;;5012034;28;20405;-43
2022/10/04 11:31:16;;;;;;;6.05;2.13;;;21.30;42.30;;;;;;4951854;29;20448;-43
2022/10/04 11:34:29;;;;;;;4.03;1.70;;;21.40;41.60;;;;;;4951601;29;20192;-43
2022/10/04 11:37:26;;;;;;;7.50;3.70;;;21.50;41.60;;;;;;4875464;29;20424;-43
2022/10/04 11:40:10;;;;;;;7.63;5.23;;;21.50;40.90;;;;;;4951733;29;20556;-43
2022/10/04 11:43:17;;;;;;;8.00;2.60;;;21.40;39.90;;;;;;4954610;28;20456;-44
2022/10/04 11:46:08;;;;;;;4.43;1.90;;;21.40;41.10;;;;;;4951161;29;20522;-43
2022/10/04 11:48:39;;;;;;;4.60;2.20;;;21.60;39.60;;;;;;4955689;29;20859;-43
2022/10/04 11:51:30;;;;;;;2.97;1.50;;;21.70;41.10;;;;;;4955469;29;20495;-43
2022/10/04 11:54:26;;;;;;;3.80;2.00;;;21.80;40.20;;;;;;4955483;29;20436;-43
2022/10/04 11:57:16;;;;;;;4.83;2.40;;;21.80;39.90;;;;;;4954748;29;20408;-43
2022/10/04 11:59:51;;;;;;;2.90;1.90;;;21.70;40.60;;;;;;4955561;29;20563;-43
2022/10/04 12:02:39;;;;;;;5.97;1.80;;;21.80;41.20;;;;;;4955219;29;20442;-43
2022/10/04 12:05:48;;;;;;;7.20;5.27;;;21.70;40.80;;;;;;4982924;28;20460;-43
2022/10/04 12:08:38;;;;;;;8.40;4.67;;;21.70;40.30;;;;;;5015897;28;20899;-42
2022/10/04 12:11:21;;;;;;;10.27;2.92;;;21.60;40.80;;;;;;5015851;28;20413;-42
2022/10/04 12:14:23;;;;;;;4.70;1.77;;;21.60;40.60;;;;;;5015750;28;20276;-43
2022/10/04 12:17:07;;;;;;;6.30;1.57;;;21.60;40.30;;;;;;5008884;28;20409;-43
2022/10/04 12:20:03;;;;;;;3.67;1.70;;;21.60;40.20;;;;;;5015697;28;20719;-43
2022/10/04 12:23:03;;;;;;;5.63;1.87;;;21.50;40.00;;;;;;5015480;28;20947;-43
2022/10/04 12:25:58;;;;;;;6.03;2.27;;;21.60;40.00;;;;;;5015470;28;20463;-43
2022/10/04 12:28:40;;;;;;;3.80;1.97;;;21.50;39.30;;;;;;5013822;28;20482;-43
2022/10/04 12:31:24;;;;;;;6.67;2.30;;;21.60;40.50;;;;;;5015451;28;20917;-43
2022/10/04 12:34:20;;;;;;;3.87;1.80;;;21.60;40.40;;;;;;5015505;28;20421;-43
2022/10/04 12:37:24;;;;;;;6.10;1.67;;;21.80;41.30;;;;;;4987103;28;20421;-43
2022/10/04 12:40:08;;;;;;;2.67;1.63;;;22.10;39.50;;;;;;5015241;28;20488;-43
2022/10/04 12:42:37;;;;;;;5.67;1.73;;;22.10;38.20;;;;;;5015198;28;20532;-43
2022/10/04 12:45:27;;;;;;;5.23;2.10;;;22.10;38.40;;;;;;5015713;28;20457;-43
2022/10/04 12:48:11;;;;;;;7.80;2.23;;;22.30;39.10;;;;;;5015279;28;20520;-43
2022/10/04 12:51:27;;;;;;;8.97;2.10;;;22.40;40.10;;;;;;5015183;28;20386;-43
2022/10/04 12:54:17;;;;;;;5.33;2.00;;;22.80;39.90;;;;;;5001092;28;20437;-43
2022/10/04 12:57:10;;;;;;;2.30;1.70;;;23.10;40.00;;;;;;5014697;28;20409;-43
2022/10/04 12:59:41;;;;;;;4.13;2.53;;;23.30;38.70;;;;;;5015268;28;20390;-43
2022/10/04 13:02:28;;;;;;;2.30;1.63;;;23.40;38.80;;;;;;5014881;28;20425;-44
2022/10/04 13:04:57;;;;;;;3.87;1.90;;;23.60;36.10;;;;;;4997179;28;20458;-44
2022/10/04 13:07:50;;;;;;;3.80;1.50;;;23.80;37.40;;;;;;5014685;28;20409;-43
2022/10/04 13:10:23;;;;;;;2.70;1.77;;;23.90;37.80;;;;;;4993296;28;20414;-44
2022/10/04 13:13:24;;;;;;;2.60;1.50;;;23.90;35.90;;;;;;5018371;28;20493;-43
2022/10/04 13:16:08;;;;;;;4.17;1.40;;;23.90;36.70;;;;;;5019045;28;20745;-44
2022/10/04 13:18:45;;;;;;;3.10;1.67;;;23.70;36.80;;;;;;5018456;28;20397;-43
2022/10/04 13:21:17;;;;;;;2.90;1.70;;;23.50;37.20;;;;;;5019242;28;20828;-43
2022/10/04 13:24:01;;;;;;;2.80;2.00;;;23.50;37.80;;;;;;5019331;28;20920;-44
2022/10/04 13:26:41;;;;;;;5.13;1.70;;;23.60;37.90;;;;;;5018330;28;20405;-44
2022/10/04 13:29:44;;;;;;;3.83;2.47;;;23.70;37.80;;;;;;5014585;28;20393;-44
2022/10/04 13:32:25;;;;;;;3.60;1.70;;;23.80;36.00;;;;;;5001142;28;20446;-44
2022/10/04 13:34:54;;;;;;;3.47;1.87;;;23.80;37.20;;;;;;5014245;28;20854;-44
2022/10/04 13:37:59;;;;;;;2.67;1.60;;;23.70;35.60;;;;;;5013760;28;20414;-44
2022/10/04 13:40:48;;;;;;;2.80;1.67;;;23.70;35.90;;;;;;4983503;28;20413;-44
2022/10/04 13:43:48;;;;;;;4.47;1.97;;;23.50;36.40;;;;;;5013996;28;20457;-43
2022/10/04 13:46:38;;;;;;;2.77;1.50;;;23.50;37.50;;;;;;5013955;28;20844;-44
2022/10/04 13:49:23;;;;;;;10.83;1.97;;;23.40;38.10;;;;;;5014227;28;20416;-44
2022/10/04 13:58:58;;;;;;;3.10;1.90;;;23.10;38.20;;;;;;5014167;28;20757;-44
2022/10/04 14:01:45;;;;;;;3.77;1.50;;;23.00;37.50;;;;;;5013778;28;20394;-44
2022/10/04 14:04:38;;;;;;;3.03;1.30;;;23.10;38.90;;;;;;5013533;28;20389;-44
2022/10/04 14:07:45;;;;;;;4.30;1.40;;;23.30;39.00;;;;;;5013197;28;20464;-44
2022/10/04 14:10:16;;;;;;;4.00;1.80;;;23.50;38.50;;;;;;4996780;28;20424;-44
2022/10/04 14:12:48;;;;;;;7.27;1.93;;;23.60;38.50;;;;;;5013440;28;20432;-43
2022/10/04 14:15:17;;;;;;;4.37;1.67;;;23.70;38.20;;;;;;5013587;28;20769;-44